Time;durP1;ratioP1;P1;durP2;ratioP2;P2;SDS_P1;SDS_P2;PMS_P1;PMS_P2;Temp;Humidity;BMP_temperature;BMP_pressure;BME280_temperature;BME280_humidity;BME280_pressure;Samples;Min_cycle;Max_cycle;Signal;HPM_P1;HPM_P2
2024/04/05 00:00:13;;;;;;;5.97;1.83;;;;;;;15.09;100.00;100490.41;5152898;27;20107;-53
2024/04/05 00:02:41;;;;;;;3.83;1.73;;;;;;;15.04;100.00;100489.91;5152870;27;20089;-56
2024/04/05 00:05:10;;;;;;;6.18;2.13;;;;;;;14.98;100.00;100485.84;5153016;27;20054;-54
2024/04/05 00:07:37;;;;;;;3.85;1.83;;;;;;;14.94;100.00;100468.22;5152977;27;20121;-52
2024/04/05 00:10:07;;;;;;;3.05;1.70;;;;;;;14.96;100.00;100462.75;5152750;27;20050;-53
2024/04/05 00:12:36;;;;;;;5.90;1.63;;;;;;;14.79;100.00;100461.34;5152697;27;20066;-51
2024/04/05 00:15:05;;;;;;;2.92;1.40;;;;;;;14.54;100.00;100456.91;5152517;27;20043;-53
2024/04/05 00:17:31;;;;;;;5.40;1.50;;;;;;;14.42;100.00;100453.28;5152642;27;20460;-54
2024/04/05 00:19:59;;;;;;;3.25;1.60;;;;;;;14.43;100.00;100443.41;5152577;27;20050;-53
2024/04/05 00:22:25;;;;;;;3.92;1.90;;;;;;;14.50;100.00;100436.66;5152196;27;20371;-52
2024/04/05 00:24:55;;;;;;;4.90;1.65;;;;;;;14.48;100.00;100446.66;5152348;27;20050;-54
2024/04/05 00:27:21;;;;;;;3.90;1.95;;;;;;;14.58;100.00;100445.00;5152252;27;20478;-55
2024/04/05 00:29:48;;;;;;;5.22;1.90;;;;;;;14.58;100.00;100448.53;5152108;27;20164;-56
2024/04/05 00:32:17;;;;;;;4.65;2.20;;;;;;;14.87;100.00;100453.56;5152206;27;20046;-54
2024/04/05 00:34:44;;;;;;;5.00;2.10;;;;;;;14.93;100.00;100452.25;5152194;27;20046;-57
2024/04/05 00:37:10;;;;;;;3.97;1.70;;;;;;;14.75;100.00;100451.78;5151881;27;20046;-53
2024/04/05 00:39:37;;;;;;;3.78;2.08;;;;;;;14.64;100.00;100432.94;5151911;27;20483;-58
2024/04/05 00:42:04;;;;;;;3.92;2.00;;;;;;;14.55;100.00;100394.19;5151923;27;20084;-54
2024/04/05 00:44:31;;;;;;;5.80;2.20;;;;;;;14.37;100.00;100377.59;5151962;27;20398;-55
2024/04/05 00:46:58;;;;;;;3.80;2.13;;;;;;;14.58;100.00;100394.00;5152119;27;20042;-57
2024/04/05 00:49:27;;;;;;;4.72;2.00;;;;;;;14.60;100.00;100389.38;5151711;27;20042;-53
2024/04/05 00:51:54;;;;;;;5.32;2.15;;;;;;;14.76;100.00;100381.84;5151279;27;20495;-55
2024/04/05 00:54:22;;;;;;;5.57;1.90;;;;;;;14.74;100.00;100373.06;5151927;27;20081;-56
2024/04/05 00:56:48;;;;;;;5.05;2.33;;;;;;;14.74;100.00;100373.06;5151658;27;20043;-54
2024/04/05 00:59:15;;;;;;;3.80;1.73;;;;;;;14.50;100.00;100366.88;5151684;27;20495;-55
2024/04/05 01:01:43;;;;;;;4.72;2.25;;;;;;;14.67;100.00;100370.94;5151824;27;20356;-57
2024/04/05 01:04:10;;;;;;;4.63;2.10;;;;;;;14.58;100.00;100376.06;5151772;27;20054;-55
2024/04/05 01:06:38;;;;;;;4.72;2.20;;;;;;;14.76;100.00;100368.44;5152643;27;20054;-55
2024/04/05 01:09:06;;;;;;;3.90;2.10;;;;;;;14.93;100.00;100359.09;5151751;27;20487;-56
2024/04/05 01:11:32;;;;;;;3.83;1.90;;;;;;;14.97;100.00;100365.09;5151400;27;20098;-56
2024/04/05 01:13:59;;;;;;;4.68;2.10;;;;;;;15.03;100.00;100367.31;5151787;27;20066;-63
2024/04/05 01:16:26;;;;;;;4.57;2.05;;;;;;;15.18;100.00;100367.00;5151404;27;20549;-56
2024/04/05 01:18:57;;;;;;;3.75;1.92;;;;;;;15.15;100.00;100371.72;5151530;27;20067;-55
2024/04/05 01:21:24;;;;;;;5.55;2.58;;;;;;;15.15;100.00;100358.28;5151343;27;20078;-56
2024/04/05 01:23:54;;;;;;;5.28;2.35;;;;;;;15.21;100.00;100363.19;5150633;27;20123;-55
2024/04/05 01:26:20;;;;;;;4.93;2.33;;;;;;;15.13;100.00;100360.25;5150281;27;20038;-54
2024/04/05 01:28:47;;;;;;;4.22;2.42;;;;;;;15.18;100.00;100348.19;5150546;27;20046;-54
2024/04/05 01:31:14;;;;;;;4.68;2.20;;;;;;;15.08;100.00;100362.44;5150219;27;20475;-55
2024/04/05 01:33:41;;;;;;;4.15;2.28;;;;;;;15.09;100.00;100353.41;5150311;27;20046;-55
2024/04/05 01:36:07;;;;;;;5.50;2.25;;;;;;;15.06;100.00;100362.56;5150293;27;20042;-52
2024/04/05 01:38:34;;;;;;;5.38;2.45;;;;;;;15.02;100.00;100373.66;5150116;27;20046;-55
2024/04/05 01:41:02;;;;;;;5.10;2.10;;;;;;;14.99;100.00;100360.47;5150386;27;20448;-56
2024/04/05 01:43:29;;;;;;;5.32;2.20;;;;;;;14.94;100.00;100370.69;5149953;27;20415;-55
2024/04/05 01:45:56;;;;;;;4.53;2.22;;;;;;;14.98;100.00;100366.81;5150273;27;20099;-56
2024/04/05 01:48:23;;;;;;;5.07;2.38;;;;;;;15.01;100.00;100366.56;5150208;27;20471;-54
2024/04/05 01:50:49;;;;;;;4.97;2.40;;;;;;;14.98;100.00;100356.06;5149893;27;20047;-56
2024/04/05 01:53:18;;;;;;;4.88;2.80;;;;;;;14.97;100.00;100365.97;5149990;27;20072;-54
2024/04/05 01:55:44;;;;;;;5.97;2.67;;;;;;;14.94;100.00;100368.00;5150019;27;20130;-57
2024/04/05 01:58:13;;;;;;;4.38;2.60;;;;;;;14.93;100.00;100375.22;5150278;27;20054;-55
2024/04/05 02:00:39;;;;;;;6.38;2.67;;;;;;;14.91;100.00;100370.94;5150103;27;20054;-53
2024/04/05 02:03:06;;;;;;;4.68;2.58;;;;;;;15.01;100.00;100366.56;5131213;27;20125;-52
2024/04/05 02:05:33;;;;;;;4.68;2.20;;;;;;;14.79;100.00;100360.16;5149818;27;20043;-56
2024/04/05 02:08:00;;;;;;;5.65;2.70;;;;;;;14.88;100.00;100356.78;5149791;27;20128;-56
2024/04/05 02:10:26;;;;;;;5.88;2.67;;;;;;;14.87;100.00;100365.81;5149967;27;20458;-56
2024/04/05 02:12:53;;;;;;;4.82;2.50;;;;;;;14.84;100.00;100366.03;5150140;27;20043;-55
2024/04/05 02:15:21;;;;;;;5.40;2.75;;;;;;;14.89;100.00;100374.59;5149780;27;20042;-56
2024/04/05 02:17:48;;;;;;;4.68;2.65;;;;;;;14.83;100.00;100372.38;5149583;27;20045;-57
2024/04/05 02:20:14;;;;;;;4.32;2.65;;;;;;;14.83;100.00;100374.19;5149342;27;20046;-54
2024/04/05 02:22:41;;;;;;;4.27;2.50;;;;;;;14.92;100.00;100369.97;5107734;27;1168089;-54
2024/04/05 02:25:08;;;;;;;4.80;2.63;;;;;;;14.99;100.00;100381.97;5150368;27;20046;-54
2024/04/05 02:27:35;;;;;;;5.50;2.53;;;;;;;14.88;100.00;100377.41;5150637;27;20046;-55
2024/04/05 02:30:01;;;;;;;4.30;2.65;;;;;;;15.06;100.00;100385.91;5150339;27;20043;-55
2024/04/05 02:32:30;;;;;;;5.45;2.67;;;;;;;15.04;100.00;100377.94;5150418;27;20047;-57
2024/04/05 02:34:57;;;;;;;3.58;2.42;;;;;;;15.07;100.00;100377.72;5150112;27;20051;-54
2024/04/05 02:37:24;;;;;;;5.07;2.63;;;;;;;14.96;100.00;100384.84;5150287;27;20190;-56
2024/04/05 02:39:50;;;;;;;4.72;2.35;;;;;;;14.95;100.00;100393.88;5150579;27;20507;-56
2024/04/05 02:42:17;;;;;;;5.38;3.00;;;;;;;14.96;100.00;100385.75;5150306;27;20050;-57
2024/04/05 02:44:44;;;;;;;6.05;3.00;;;;;;;14.99;100.00;100396.25;5150262;27;20049;-54
2024/04/05 02:47:12;;;;;;;5.95;2.83;;;;;;;14.97;100.00;100397.34;5150271;27;20133;-54
2024/04/05 02:49:39;;;;;;;5.97;2.88;;;;;;;14.82;100.00;100404.72;5150183;27;20366;-54
2024/04/05 02:52:07;;;;;;;4.13;2.63;;;;;;;14.94;100.00;100413.66;5150156;27;20039;-54
2024/04/05 02:54:33;;;;;;;5.80;2.75;;;;;;;14.83;100.00;100409.97;5150490;27;20130;-54
2024/04/05 02:57:01;;;;;;;5.75;2.97;;;;;;;14.83;100.00;100411.78;5150165;27;20587;-58
2024/04/05 02:59:28;;;;;;;5.78;2.70;;;;;;;14.86;100.00;100415.13;5150192;27;20051;-54
2024/04/05 03:01:56;;;;;;;5.97;2.80;;;;;;;14.86;100.00;100412.44;5149998;27;20054;-57
2024/04/05 03:04:23;;;;;;;5.15;3.05;;;;;;;14.83;100.00;100423.38;5150117;27;20074;-55
2024/04/05 03:06:51;;;;;;;6.25;2.85;;;;;;;14.86;100.00;100425.88;5150082;27;20518;-55
2024/04/05 03:09:17;;;;;;;5.45;2.75;;;;;;;14.77;100.00;100423.88;5150194;27;20046;-56
2024/04/05 03:11:44;;;;;;;4.85;2.88;;;;;;;14.69;100.00;100428.94;5149909;27;20498;-56
2024/04/05 03:14:11;;;;;;;5.20;3.00;;;;;;;14.65;100.00;100429.28;5152111;27;20043;-57
2024/04/05 03:16:38;;;;;;;4.78;2.78;;;;;;;14.67;100.00;100430.91;5153696;27;20126;-58
2024/04/05 03:19:04;;;;;;;6.15;2.80;;;;;;;14.70;100.00;100438.72;5153572;27;20043;-56
2024/04/05 03:21:32;;;;;;;5.78;2.75;;;;;;;14.60;100.00;100446.59;5153650;27;20099;-57
2024/04/05 03:24:00;;;;;;;4.78;2.80;;;;;;;14.65;100.00;100440.00;5153373;27;20070;-59
2024/04/05 03:26:27;;;;;;;4.47;2.47;;;;;;;14.73;100.00;100440.31;5153557;27;20087;-58
2024/04/05 03:28:56;;;;;;;4.28;2.83;;;;;;;14.71;100.00;100440.44;5153570;27;20080;-58
2024/04/05 03:31:23;;;;;;;6.22;2.78;;;;;;;14.59;100.00;100441.34;5153303;27;20078;-58
2024/04/05 03:33:49;;;;;;;5.35;2.95;;;;;;;14.59;100.00;100449.41;5153429;27;20107;-59
2024/04/05 03:36:16;;;;;;;6.05;3.08;;;;;;;14.60;100.00;100448.41;5153706;27;20039;-59
2024/04/05 03:38:44;;;;;;;5.32;3.13;;;;;;;14.58;100.00;100443.16;5153331;27;20120;-58
2024/04/05 03:41:12;;;;;;;5.45;2.80;;;;;;;14.58;100.00;100445.00;5153419;27;20081;-58
2024/04/05 03:43:38;;;;;;;5.35;2.90;;;;;;;14.60;100.00;100449.28;5153292;27;20111;-59
2024/04/05 03:46:06;;;;;;;6.13;3.33;;;;;;;14.62;100.00;100451.84;5152873;27;20530;-59
2024/04/05 03:48:32;;;;;;;5.07;2.78;;;;;;;14.63;100.00;100448.19;5153348;27;20420;-60
2024/04/05 03:50:59;;;;;;;7.80;3.40;;;;;;;14.54;100.00;100459.59;5153220;27;20050;-61
2024/04/05 03:53:25;;;;;;;4.80;3.05;;;;;;;14.43;100.00;100462.19;5153037;27;20043;-58
2024/04/05 03:55:54;;;;;;;4.88;3.10;;;;;;;14.42;100.00;100464.00;5152991;27;20043;-61
2024/04/05 03:58:22;;;;;;;4.90;2.95;;;;;;;14.44;100.00;100464.75;5152882;27;20049;-59
2024/04/05 04:00:51;;;;;;;6.10;3.15;;;;;;;14.52;100.00;100466.91;5152817;27;20100;-60
2024/04/05 04:03:17;;;;;;;6.90;3.80;;;;;;;14.53;100.00;100465.94;5152972;27;20098;-58
2024/04/05 04:05:45;;;;;;;7.35;3.63;;;;;;;14.53;100.00;100474.84;5152852;27;20409;-59
2024/04/05 04:08:11;;;;;;;5.22;3.00;;;;;;;14.48;100.00;100476.16;5152440;27;20094;-59
2024/04/05 04:10:40;;;;;;;6.10;3.40;;;;;;;14.62;100.00;100467.94;5152401;27;20081;-60
2024/04/05 04:13:06;;;;;;;7.07;3.38;;;;;;;14.56;100.00;100468.38;5152440;27;20050;-60
2024/04/05 04:15:36;;;;;;;5.35;3.22;;;;;;;14.56;100.00;100473.75;5152326;27;20074;-61
2024/04/05 04:18:03;;;;;;;7.82;3.38;;;;;;;14.39;100.00;100479.50;5152668;27;20538;-60
2024/04/05 04:20:30;;;;;;;7.50;3.70;;;;;;;14.55;100.00;100474.72;5152504;27;20043;-60
2024/04/05 04:22:57;;;;;;;6.63;3.72;;;;;;;14.44;100.00;100467.44;5152354;27;20047;-60
2024/04/05 04:25:25;;;;;;;6.15;3.50;;;;;;;14.52;100.00;100480.34;5151684;27;20483;-60
2024/04/05 04:27:52;;;;;;;9.05;3.58;;;;;;;14.51;100.00;100478.63;5135568;27;20054;-61
2024/04/05 04:30:19;;;;;;;7.43;3.83;;;;;;;14.51;100.00;100478.63;5135545;27;20237;-61
2024/04/05 04:32:47;;;;;;;6.53;3.70;;;;;;;14.41;100.00;100485.59;5135758;27;20419;-61
2024/04/05 04:35:14;;;;;;;6.00;3.90;;;;;;;14.42;100.00;100477.44;5135816;27;20078;-60
2024/04/05 04:37:40;;;;;;;6.00;3.70;;;;;;;14.42;100.00;100484.63;5135336;27;20130;-61
2024/04/05 04:40:11;;;;;;;6.68;3.92;;;;;;;14.52;100.00;100477.66;5135069;27;20047;-59
2024/04/05 04:42:37;;;;;;;9.55;4.78;;;;;;;14.38;100.00;100486.69;5135173;27;20042;-61
2024/04/05 04:45:05;;;;;;;5.90;4.10;;;;;;;14.43;100.00;100484.50;5134858;27;20039;-61
2024/04/05 04:47:32;;;;;;;6.70;3.92;;;;;;;14.52;100.00;100488.38;5135158;27;20043;-61
2024/04/05 04:50:02;;;;;;;7.38;4.00;;;;;;;14.49;100.00;100494.00;5134814;27;20073;-61
2024/04/05 04:52:28;;;;;;;7.07;4.18;;;;;;;14.53;100.00;100492.78;5134522;27;20074;-60
2024/04/05 04:54:56;;;;;;;10.60;4.60;;;;;;;14.52;100.00;100494.59;5134611;27;20047;-61
2024/04/05 04:57:23;;;;;;;8.80;4.22;;;;;;;14.47;100.00;100502.13;5134419;27;20050;-61
2024/04/05 04:59:51;;;;;;;8.30;4.63;;;;;;;14.41;100.00;100499.00;5134658;27;20046;-61
2024/04/05 05:02:17;;;;;;;9.20;4.88;;;;;;;14.33;100.00;100500.41;5126089;27;20053;-60
2024/04/05 05:04:44;;;;;;;7.95;4.57;;;;;;;14.46;100.00;100499.56;5134432;27;20462;-61
2024/04/05 05:07:12;;;;;;;9.45;4.95;;;;;;;14.36;100.00;100493.09;5134014;27;20460;-60
2024/04/05 05:09:39;;;;;;;10.68;5.20;;;;;;;14.27;100.00;100510.72;5133946;27;20578;-60
2024/04/05 05:12:06;;;;;;;6.95;4.60;;;;;;;14.40;100.00;100511.56;5133878;27;20140;-60
2024/04/05 05:14:33;;;;;;;7.65;4.60;;;;;;;14.62;100.00;100510.91;5134480;27;20046;-61
2024/04/05 05:16:59;;;;;;;8.25;4.90;;;;;;;14.81;100.00;100521.16;5134331;27;20104;-61
2024/04/05 05:19:26;;;;;;;6.70;4.65;;;;;;;14.97;100.00;100521.75;5134381;27;20047;-62
2024/04/05 05:21:53;;;;;;;6.40;4.20;;;;;;;14.95;100.00;100514.75;5133869;27;20042;-60
2024/04/05 05:24:27;;;;;;;10.88;4.68;;;;;;;15.10;100.00;100527.06;5130076;27;20412;-58
2024/04/05 05:26:54;;;;;;;7.93;4.35;;;;;;;14.58;100.00;100518.34;5131298;27;20050;-60
2024/04/05 05:29:21;;;;;;;10.80;5.28;;;;;;;15.01;100.00;100528.59;5154734;27;20074;-60
2024/04/05 05:31:47;;;;;;;7.40;4.28;;;;;;;15.14;100.00;100528.53;5154663;27;20434;-62
2024/04/05 05:34:15;;;;;;;6.30;4.10;;;;;;;15.21;100.00;100532.47;5154861;27;20045;-59
2024/04/05 05:36:41;;;;;;;7.75;4.63;;;;;;;15.40;100.00;100546.25;5154698;27;20050;-61
2024/04/05 05:39:11;;;;;;;7.55;4.72;;;;;;;15.54;100.00;100553.28;5154916;27;20042;-61
2024/04/05 05:41:39;;;;;;;9.70;5.25;;;;;;;15.71;100.00;100554.69;5155099;27;20395;-60
2024/04/05 05:44:06;;;;;;;7.40;4.78;;;;;;;15.86;100.00;100552.66;5155085;27;20046;-60
2024/04/05 05:46:32;;;;;;;7.07;4.85;;;;;;;15.84;100.00;100558.19;5154999;27;20050;-63
2024/04/05 05:49:00;;;;;;;8.35;5.28;;;;;;;15.96;100.00;100559.06;5154914;27;20103;-61
2024/04/05 05:51:26;;;;;;;7.85;5.00;;;;;;;16.07;100.00;100556.38;5154650;27;20211;-59
2024/04/05 05:53:54;;;;;;;7.03;4.70;;;;;;;16.14;100.00;100552.22;5154650;27;20083;-60
2024/04/05 05:56:21;;;;;;;7.38;5.22;;;;;;;16.38;100.00;100557.50;5154587;27;20058;-59
2024/04/05 05:58:49;;;;;;;8.68;5.00;;;;;;;16.37;100.00;100561.16;5155060;27;20042;-58
2024/04/05 06:01:17;;;;;;;8.90;5.45;;;;;;;16.47;100.00;100562.16;5155260;27;20046;-60
2024/04/05 06:03:44;;;;;;;9.60;5.43;;;;;;;16.63;100.00;100560.94;5154932;27;20410;-59
2024/04/05 06:06:11;;;;;;;9.35;5.05;;;;;;;16.82;100.00;100563.88;5154563;27;20380;-60
2024/04/05 06:08:40;;;;;;;7.88;5.45;;;;;;;16.96;100.00;100569.00;5154323;27;20050;-63
2024/04/05 06:11:06;;;;;;;9.00;4.90;;;;;;;17.00;100.00;100573.16;5154472;27;20050;-59
2024/04/05 06:13:33;;;;;;;7.85;5.38;;;;;;;17.12;100.00;100582.06;5154500;27;20074;-59
2024/04/05 06:16:01;;;;;;;8.55;5.03;;;;;;;17.18;100.00;100576.19;5154379;27;20042;-59
2024/04/05 06:18:29;;;;;;;8.52;4.80;;;;;;;17.24;100.00;100569.41;5154317;27;20042;-59
2024/04/05 06:20:57;;;;;;;8.43;4.57;;;;;;;17.33;100.00;100576.75;5154231;27;20080;-59
2024/04/05 06:23:25;;;;;;;8.27;4.95;;;;;;;17.48;98.35;100583.56;5154337;27;20118;-60
2024/04/05 06:25:53;;;;;;;6.57;4.22;;;;;;;17.51;97.57;100577.06;5154695;27;20445;-59
2024/04/05 06:28:21;;;;;;;8.07;4.93;;;;;;;17.56;97.67;100586.44;5154344;27;20125;-60
2024/04/05 06:30:47;;;;;;;10.68;4.70;;;;;;;17.69;96.90;100587.19;5154550;27;20133;-61
2024/04/05 06:33:16;;;;;;;7.53;4.90;;;;;;;17.76;95.89;100581.25;5154519;27;20087;-60
2024/04/05 06:35:42;;;;;;;6.35;4.55;;;;;;;17.80;92.82;100594.38;5154330;27;20266;-60
2024/04/05 06:38:09;;;;;;;6.47;4.45;;;;;;;17.91;91.46;100590.75;5154469;27;20042;-59
2024/04/05 06:40:37;;;;;;;7.63;4.90;;;;;;;17.88;91.66;100591.88;5154163;27;20046;-60
2024/04/05 06:43:04;;;;;;;9.93;4.72;;;;;;;18.09;92.85;100597.28;5154194;27;20050;-61
2024/04/05 06:45:30;;;;;;;7.65;4.72;;;;;;;18.16;91.92;100595.75;5154046;27;20058;-60
2024/04/05 06:47:57;;;;;;;7.40;4.60;;;;;;;18.34;90.65;100587.06;5154217;27;20042;-61
2024/04/05 06:50:25;;;;;;;8.98;3.55;;;;;;;18.35;83.61;100597.72;5158212;27;20068;-59
2024/04/05 06:52:56;;;;;;;5.72;3.47;;;;;;;18.54;82.40;100599.66;5158239;27;20531;-57
2024/04/05 06:55:22;;;;;;;17.40;4.40;;;;;;;18.64;81.56;100599.72;5158271;27;20115;-58
2024/04/05 06:57:52;;;;;;;7.15;2.85;;;;;;;18.68;78.46;100604.72;5158056;27;20046;-58
2024/04/05 07:00:19;;;;;;;7.47;2.60;;;;;;;18.74;75.59;100606.03;5158154;27;20092;-58
2024/04/05 07:02:46;;;;;;;7.00;3.00;;;;;;;18.87;75.48;100604.78;5157879;27;20125;-55
2024/04/05 07:05:14;;;;;;;27.95;5.00;;;;;;;18.95;74.98;100603.25;5157906;27;20474;-56
2024/04/05 07:07:42;;;;;;;15.40;3.28;;;;;;;19.01;72.84;100600.00;5158073;27;20047;-54
2024/04/05 07:10:09;;;;;;;9.85;2.45;;;;;;;19.09;72.96;100597.47;5158097;27;20121;-53
2024/04/05 07:12:36;;;;;;;5.40;2.28;;;;;;;19.11;71.71;100595.50;5157775;27;20447;-58
2024/04/05 07:15:05;;;;;;;5.65;2.60;;;;;;;19.23;71.99;100591.66;5157704;27;20054;-53
2024/04/05 07:17:32;;;;;;;3.50;1.90;;;;;;;19.22;69.33;100591.81;5157637;27;20049;-54
2024/04/05 07:19:59;;;;;;;5.00;1.75;;;;;;;19.24;67.49;100593.38;5157769;27;20136;-56
2024/04/05 07:22:27;;;;;;;4.10;1.70;;;;;;;19.23;67.38;100602.47;5157413;27;20053;-55
2024/04/05 07:24:55;;;;;;;5.57;1.90;;;;;;;19.24;65.93;100598.78;5157433;27;20125;-54
2024/04/05 07:27:22;;;;;;;6.30;1.90;;;;;;;19.33;66.09;100592.53;5157203;27;20106;-52
2024/04/05 07:29:48;;;;;;;6.03;2.10;;;;;;;19.41;65.80;100595.41;5157138;27;20046;-53
2024/04/05 07:32:16;;;;;;;3.80;1.60;;;;;;;19.59;65.11;100586.59;5157421;27;20072;-54
2024/04/05 07:34:42;;;;;;;4.22;1.40;;;;;;;19.52;64.49;100586.28;5157359;27;20042;-54
2024/04/05 07:37:10;;;;;;;4.78;1.60;;;;;;;19.32;62.75;100596.25;5157361;27;20043;-55
2024/04/05 07:39:39;;;;;;;6.32;3.17;;;;;;;19.30;62.20;100592.81;5157428;27;20428;-51
2024/04/05 07:42:08;;;;;;;35.25;17.33;;;;;;;19.44;62.93;100594.25;5157264;27;20042;-52
2024/04/05 07:44:34;;;;;;;6.63;2.58;;;;;;;19.08;60.87;100598.44;5157163;27;20486;-50
2024/04/05 07:47:02;;;;;;;5.93;2.10;;;;;;;19.35;62.73;100595.94;5157521;27;20170;-54
2024/04/05 07:49:28;;;;;;;6.72;1.77;;;;;;;19.34;60.11;100601.50;5157152;27;20533;-53
2024/04/05 07:51:55;;;;;;;5.72;1.58;;;;;;;19.06;62.99;100605.84;5157158;27;20066;-53
2024/04/05 07:54:21;;;;;;;6.80;1.80;;;;;;;19.47;62.25;100601.22;5157255;27;20038;-54
2024/04/05 07:56:49;;;;;;;5.88;1.75;;;;;;;19.70;61.54;100603.56;5156960;27;20406;-52
2024/04/05 07:59:16;;;;;;;9.23;2.10;;;;;;;19.72;61.32;100603.41;5156677;27;20050;-57
2024/04/05 08:01:44;;;;;;;7.60;1.70;;;;;;;19.87;60.08;100607.38;5157324;27;20046;-56
2024/04/05 08:04:10;;;;;;;8.13;3.25;;;;;;;20.01;61.33;100608.81;5157174;27;20134;-53
2024/04/05 08:06:37;;;;;;;8.25;2.60;;;;;;;20.10;60.87;100601.69;5157104;27;20042;-55
2024/04/05 08:09:04;;;;;;;7.45;2.63;;;;;;;20.57;60.26;100606.16;5156864;27;20091;-53
2024/04/05 08:11:31;;;;;;;3.20;1.33;;;;;;;20.14;57.28;100609.34;5156737;27;20046;-54
2024/04/05 08:13:57;;;;;;;6.90;1.70;;;;;;;20.39;57.80;100605.19;5156341;27;20046;-54
2024/04/05 08:16:26;;;;;;;7.20;1.27;;;;;;;20.51;56.54;100600.47;5156908;27;20042;-57
2024/04/05 08:18:53;;;;;;;4.57;1.38;;;;;;;20.44;57.30;100607.47;5157044;27;20065;-55
2024/04/05 08:21:20;;;;;;;3.17;1.42;;;;;;;20.20;57.35;100599.81;5156730;27;20049;-53
2024/04/05 08:23:47;;;;;;;5.20;1.45;;;;;;;20.24;56.91;100612.03;5156336;27;20081;-57
2024/04/05 08:26:14;;;;;;;4.95;1.60;;;;;;;20.05;56.87;100602.09;5156215;27;20054;-54
2024/04/05 08:28:40;;;;;;;5.82;1.20;;;;;;;20.31;56.04;100596.94;5156309;27;20129;-53
2024/04/05 08:31:08;;;;;;;4.50;1.40;;;;;;;20.55;55.48;100596.44;5155937;27;20414;-56
2024/04/05 08:33:35;;;;;;;3.97;1.20;;;;;;;20.47;55.31;100602.63;5155798;27;20103;-55
2024/04/05 08:36:03;;;;;;;2.60;1.02;;;;;;;20.36;53.80;100607.31;5155842;27;20466;-56
2024/04/05 08:38:29;;;;;;;6.20;1.40;;;;;;;20.68;54.41;100612.38;5156149;27;20077;-56
2024/04/05 08:40:57;;;;;;;9.75;1.60;;;;;;;20.67;54.41;100613.41;5155817;27;20050;-54
2024/04/05 08:43:27;;;;;;;5.93;1.30;;;;;;;20.52;53.59;100608.44;5156007;27;20050;-55
2024/04/05 08:45:54;;;;;;;7.38;1.80;;;;;;;20.68;53.60;100612.38;5156161;27;20070;-57
2024/04/05 08:48:21;;;;;;;4.57;1.40;;;;;;;20.68;53.65;100612.38;5155946;27;20091;-55
2024/04/05 08:50:51;;;;;;;3.72;1.20;;;;;;;20.32;53.04;100606.75;5155722;27;20129;-57
2024/04/05 08:53:18;;;;;;;4.45;1.20;;;;;;;20.50;52.86;100613.16;5155608;27;20460;-54
2024/04/05 08:55:48;;;;;;;5.97;1.40;;;;;;;20.08;53.80;100609.09;5155576;27;20129;-56
2024/04/05 08:58:15;;;;;;;3.67;1.20;;;;;;;20.65;54.70;100599.13;5155808;27;20112;-57
2024/04/05 09:00:42;;;;;;;4.32;2.08;;;;;;;20.56;53.15;100603.59;5155822;27;20053;-53
2024/04/05 09:03:10;;;;;;;9.25;3.17;;;;;;;20.78;52.59;100608.63;5155680;27;20046;-57
2024/04/05 09:05:37;;;;;;;5.65;1.90;;;;;;;20.88;52.16;100608.59;5155644;27;20050;-54
2024/04/05 09:08:07;;;;;;;6.13;2.00;;;;;;;20.87;51.79;100612.31;5155110;27;20471;-53
2024/04/05 09:10:36;;;;;;;6.13;1.70;;;;;;;21.01;51.43;100602.81;5155311;27;20053;-52
2024/04/05 09:13:04;;;;;;;5.30;1.98;;;;;;;21.07;51.10;100594.06;5154781;27;20049;-55
2024/04/05 09:15:32;;;;;;;3.92;1.45;;;;;;;20.46;50.31;100614.47;5155158;27;20038;-54
2024/04/05 09:17:58;;;;;;;5.43;1.35;;;;;;;20.85;50.58;100606.19;5155069;27;20079;-57
2024/04/05 09:20:29;;;;;;;4.80;1.63;;;;;;;20.56;50.82;100609.00;5155196;27;20088;-57
2024/04/05 09:23:00;;;;;;;3.45;1.20;;;;;;;20.06;52.07;100616.50;5155158;27;20065;-57
2024/04/05 09:25:28;;;;;;;4.38;1.33;;;;;;;19.96;52.16;100616.50;5155052;27;20410;-56
2024/04/05 09:28:06;;;;;;;4.57;1.60;;;;;;;20.27;51.53;100614.47;5155139;27;20137;-54
2024/04/05 09:30:34;;;;;;;4.35;1.42;;;;;;;20.36;52.14;100613.56;5137916;27;20094;-54
2024/04/05 09:33:01;;;;;;;3.85;1.67;;;;;;;20.53;52.55;100604.72;5154793;27;20420;-54
2024/04/05 09:35:30;;;;;;;4.53;1.20;;;;;;;20.56;51.96;100606.31;5154632;27;20098;-54
2024/04/05 09:37:56;;;;;;;4.28;1.23;;;;;;;20.79;51.91;100606.78;5154534;27;20514;-55
2024/04/05 09:40:24;;;;;;;8.40;1.80;;;;;;;20.85;52.31;100608.91;5154753;27;20051;-56
2024/04/05 09:42:52;;;;;;;5.50;1.60;;;;;;;20.97;51.84;100613.13;5155401;27;20133;-57
2024/04/05 09:45:21;;;;;;;4.78;1.52;;;;;;;21.19;51.17;100605.56;5154738;27;20047;-54
2024/04/05 09:47:48;;;;;;;6.97;1.20;;;;;;;21.13;49.97;100618.75;5154501;27;20042;-56
2024/04/05 09:50:17;;;;;;;4.85;1.60;;;;;;;20.81;50.13;100612.91;5154537;27;20038;-56
2024/04/05 09:52:46;;;;;;;6.50;1.30;;;;;;;21.17;50.38;100610.28;5154525;27;20049;-54
2024/04/05 09:55:16;;;;;;;7.72;1.80;;;;;;;21.46;49.26;100607.44;5155045;27;20658;-53
2024/04/05 09:57:44;;;;;;;7.05;1.45;;;;;;;21.24;49.32;100609.53;5154749;27;20061;-55
2024/04/05 10:00:17;;;;;;;4.72;1.90;;;;;;;21.13;49.62;100605.19;5154481;27;20042;-56
2024/04/05 10:02:46;;;;;;;3.22;1.27;;;;;;;21.19;49.38;100611.84;5154851;27;20047;-59
2024/04/05 10:05:24;;;;;;;4.53;1.55;;;;;;;21.49;48.94;100599.81;5155050;27;20046;-57
2024/04/05 10:07:50;;;;;;;5.13;1.33;;;;;;;21.24;49.04;100595.97;5154596;27;20122;-57
2024/04/05 10:10:28;;;;;;;5.55;1.00;;;;;;;21.33;48.36;100594.25;5154660;27;20042;-56
2024/04/05 10:12:55;;;;;;;4.10;1.17;;;;;;;21.52;48.00;100599.53;5154443;27;20057;-56
2024/04/05 10:15:27;;;;;;;4.07;1.33;;;;;;;21.50;47.28;100604.22;5153715;27;20463;-57
2024/04/05 10:17:57;;;;;;;6.93;1.65;;;;;;;21.11;47.22;100599.03;5154618;27;20050;-60
2024/04/05 10:20:24;;;;;;;9.23;1.42;;;;;;;21.27;48.68;100597.56;5154440;27;20126;-56
2024/04/05 10:22:58;;;;;;;4.32;1.50;;;;;;;21.29;46.23;100595.53;5154686;27;20054;-57
2024/04/05 10:25:25;;;;;;;6.22;1.25;;;;;;;21.23;45.94;100593.38;5158597;27;20490;-57
2024/04/05 10:27:53;;;;;;;4.85;1.35;;;;;;;21.48;46.12;100589.13;5141537;27;20039;-55
2024/04/05 10:30:21;;;;;;;5.75;1.35;;;;;;;20.95;47.66;100598.84;5128398;27;20509;-56
2024/04/05 10:32:56;;;;;;;5.00;1.30;;;;;;;20.84;47.59;100586.34;5137515;27;20042;-57
2024/04/05 10:35:23;;;;;;;3.95;1.10;;;;;;;21.15;48.27;100588.75;5137306;27;20043;-58
2024/04/05 10:37:57;;;;;;;3.92;1.52;;;;;;;21.06;47.64;100586.94;5137236;27;20095;-59
2024/04/05 10:40:24;;;;;;;4.10;1.40;;;;;;;20.76;48.17;100588.97;5146125;27;20049;-56
2024/04/05 10:42:51;;;;;;;4.65;1.30;;;;;;;20.78;49.17;100602.34;5157909;27;20440;-58
2024/04/05 10:45:19;;;;;;;5.60;1.58;;;;;;;21.01;49.07;100592.81;5158279;27;20719;-59
2024/04/05 10:47:52;;;;;;;3.17;1.25;;;;;;;20.86;48.25;100586.19;5158198;27;20092;-57
2024/04/05 10:50:22;;;;;;;5.03;1.48;;;;;;;20.98;47.84;100595.84;5157770;27;20125;-59
2024/04/05 10:52:49;;;;;;;5.82;1.60;;;;;;;21.03;47.82;100595.38;5157229;27;20046;-57
2024/04/05 10:55:16;;;;;;;4.40;1.50;;;;;;;21.21;47.96;100589.97;5158062;27;20060;-57
2024/04/05 10:57:43;;;;;;;3.65;1.40;;;;;;;21.03;47.97;100590.78;5157837;27;20046;-58
2024/04/05 11:00:15;;;;;;;5.90;2.50;;;;;;;21.24;48.08;100582.41;5158107;27;20056;-56
2024/04/05 11:02:42;;;;;;;4.70;1.52;;;;;;;21.24;48.84;100573.44;5140202;27;20432;-56
2024/04/05 11:05:13;;;;;;;3.80;1.20;;;;;;;20.97;48.66;100586.00;5157289;27;20091;-55
2024/04/05 11:07:42;;;;;;;4.53;1.40;;;;;;;20.93;48.10;100590.00;5157718;27;20103;-56
2024/04/05 11:10:16;;;;;;;5.88;1.30;;;;;;;20.80;49.07;100584.09;5157234;27;20050;-56
2024/04/05 11:12:44;;;;;;;4.53;1.30;;;;;;;21.03;48.33;100574.53;5157307;27;20107;-55
2024/04/05 11:15:11;;;;;;;2.42;1.05;;;;;;;21.25;47.79;100575.97;5157794;27;20137;-57
2024/04/05 11:17:38;;;;;;;3.97;1.27;;;;;;;21.34;47.67;100576.94;5157490;27;20094;-58
2024/04/05 11:20:10;;;;;;;4.00;1.30;;;;;;;21.31;47.41;100572.66;5157856;27;20353;-52